sensor_id;sensor_type;location;lat;lon;timestamp;temperature;humidity
1079;DHT22;528;47.872;11.478;2022-08-01T00:54:22;19.90;99.90
1079;DHT22;528;47.872;11.478;2022-08-01T00:56:55;19.90;99.90
1079;DHT22;528;47.872;11.478;2022-08-01T01:00:50;19.90;99.90
1079;DHT22;528;47.872;11.478;2022-08-01T01:12:43;19.90;99.90
1079;DHT22;528;47.872;11.478;2022-08-01T01:18:14;19.80;99.90
1079;DHT22;528;47.872;11.478;2022-08-01T05:14:48;19.30;99.90
1079;DHT22;528;47.872;11.478;2022-08-01T05:17:19;19.40;99.90
1079;DHT22;528;47.872;11.478;2022-08-01T05:19:49;19.40;99.90
1079;DHT22;528;47.872;11.478;2022-08-01T05:22:26;19.50;99.90
1079;DHT22;528;47.872;11.478;2022-08-01T05:24:56;19.50;99.90
1079;DHT22;528;47.872;11.478;2022-08-01T05:27:25;19.50;99.90
1079;DHT22;528;47.872;11.478;2022-08-01T05:29:56;19.60;99.90
1079;DHT22;528;47.872;11.478;2022-08-01T05:32:28;19.60;99.90
1079;DHT22;528;47.872;11.478;2022-08-01T05:35:01;19.70;99.90
1079;DHT22;528;47.872;11.478;2022-08-01T05:37:37;19.80;99.90
1079;DHT22;528;47.872;11.478;2022-08-01T05:40:10;19.90;99.90
1079;DHT22;528;47.872;11.478;2022-08-01T05:42:49;19.90;99.90
1079;DHT22;528;47.872;11.478;2022-08-01T05:45:34;20.00;99.90
1079;DHT22;528;47.872;11.478;2022-08-01T05:48:04;20.10;99.90
1079;DHT22;528;47.872;11.478;2022-08-01T05:50:32;20.10;99.90
1079;DHT22;528;47.872;11.478;2022-08-01T05:53:00;20.20;99.90
1079;DHT22;528;47.872;11.478;2022-08-01T05:55:27;20.20;99.90
1079;DHT22;528;47.872;11.478;2022-08-01T05:57:55;20.30;99.90
1079;DHT22;528;47.872;11.478;2022-08-01T06:00:22;20.30;99.90
1079;DHT22;528;47.872;11.478;2022-08-01T06:02:51;20.30;99.90
1079;DHT22;528;47.872;11.478;2022-08-01T06:05:19;20.30;99.90
1079;DHT22;528;47.872;11.478;2022-08-01T06:07:46;20.30;99.90
1079;DHT22;528;47.872;11.478;2022-08-01T06:10:14;20.30;99.90
1079;DHT22;528;47.872;11.478;2022-08-01T06:12:41;20.30;99.90
1079;DHT22;528;47.872;11.478;2022-08-01T06:15:10;20.40;99.90
1079;DHT22;528;47.872;11.478;2022-08-01T06:17:37;20.40;99.90
1079;DHT22;528;47.872;11.478;2022-08-01T06:20:08;20.50;99.90
1079;DHT22;528;47.872;11.478;2022-08-01T06:22:35;20.60;99.90
1079;DHT22;528;47.872;11.478;2022-08-01T06:25:03;20.70;99.90
1079;DHT22;528;47.872;11.478;2022-08-01T06:27:30;20.70;99.90
1079;DHT22;528;47.872;11.478;2022-08-01T06:30:00;20.80;99.90
1079;DHT22;528;47.872;11.478;2022-08-01T06:32:27;20.80;99.90
1079;DHT22;528;47.872;11.478;2022-08-01T06:34:55;21.00;99.90
1079;DHT22;528;47.872;11.478;2022-08-01T06:37:24;21.00;99.90
1079;DHT22;528;47.872;11.478;2022-08-01T06:40:13;21.00;99.90
1079;DHT22;528;47.872;11.478;2022-08-01T06:42:55;21.10;99.90
1079;DHT22;528;47.872;11.478;2022-08-01T06:45:51;21.30;99.90
1079;DHT22;528;47.872;11.478;2022-08-01T06:48:30;21.30;99.90
1079;DHT22;528;47.872;11.478;2022-08-01T06:51:10;21.50;99.90
1079;DHT22;528;47.872;11.478;2022-08-01T06:53:49;21.60;99.90
1079;DHT22;528;47.872;11.478;2022-08-01T06:56:22;21.70;99.90
1079;DHT22;528;47.872;11.478;2022-08-01T06:59:03;21.90;99.90
1079;DHT22;528;47.872;11.478;2022-08-01T07:02:00;22.00;99.90
1079;DHT22;528;47.872;11.478;2022-08-01T07:04:44;22.20;99.90
1079;DHT22;528;47.872;11.478;2022-08-01T07:10:49;22.50;99.90
1079;DHT22;528;47.872;11.478;2022-08-01T07:13:56;22.70;99.90
1079;DHT22;528;47.872;11.478;2022-08-01T07:20:10;23.00;99.90
1079;DHT22;528;47.872;11.478;2022-08-01T07:41:42;23.90;99.70
1079;DHT22;528;47.872;11.478;2022-08-01T07:42:16;24.00;99.20
1079;DHT22;528;47.872;11.478;2022-08-01T07:54:25;24.80;98.60
1079;DHT22;528;47.872;11.478;2022-08-01T07:56:53;24.80;98.60
1079;DHT22;528;47.872;11.478;2022-08-01T07:59:45;24.80;97.80
1079;DHT22;528;47.872;11.478;2022-08-01T08:02:15;25.00;98.40
1079;DHT22;528;47.872;11.478;2022-08-01T08:04:45;25.00;97.70
1079;DHT22;528;47.872;11.478;2022-08-01T08:07:12;25.00;97.00
1079;DHT22;528;47.872;11.478;2022-08-01T08:09:41;25.00;97.00
1079;DHT22;528;47.872;11.478;2022-08-01T08:12:08;25.00;96.30
1079;DHT22;528;47.872;11.478;2022-08-01T08:14:36;25.10;97.50
1079;DHT22;528;47.872;11.478;2022-08-01T08:17:05;25.20;97.00
1079;DHT22;528;47.872;11.478;2022-08-01T08:19:32;25.30;97.00
1079;DHT22;528;47.872;11.478;2022-08-01T08:22:02;25.40;96.90
1079;DHT22;528;47.872;11.478;2022-08-01T08:24:30;25.50;97.10
1079;DHT22;528;47.872;11.478;2022-08-01T08:26:59;25.50;96.50
1079;DHT22;528;47.872;11.478;2022-08-01T08:29:28;25.60;96.30
1079;DHT22;528;47.872;11.478;2022-08-01T08:31:57;25.70;96.70
1079;DHT22;528;47.872;11.478;2022-08-01T08:34:26;25.70;96.30
1079;DHT22;528;47.872;11.478;2022-08-01T08:36:54;25.80;96.10
1079;DHT22;528;47.872;11.478;2022-08-01T08:39:23;25.80;95.40
1079;DHT22;528;47.872;11.478;2022-08-01T08:41:50;25.80;95.20
1079;DHT22;528;47.872;11.478;2022-08-01T08:44:22;26.00;95.20
1079;DHT22;528;47.872;11.478;2022-08-01T08:46:52;25.80;94.70
1079;DHT22;528;47.872;11.478;2022-08-01T08:49:24;25.90;95.40
1079;DHT22;528;47.872;11.478;2022-08-01T08:51:53;26.00;96.00
1079;DHT22;528;47.872;11.478;2022-08-01T08:54:22;26.00;95.80
1079;DHT22;528;47.872;11.478;2022-08-01T08:56:50;26.00;95.70
1079;DHT22;528;47.872;11.478;2022-08-01T08:59:20;26.10;96.10
1079;DHT22;528;47.872;11.478;2022-08-01T09:01:47;26.20;95.70
1079;DHT22;528;47.872;11.478;2022-08-01T09:04:15;26.30;94.90
1079;DHT22;528;47.872;11.478;2022-08-01T09:06:44;26.30;94.60
1079;DHT22;528;47.872;11.478;2022-08-01T09:09:11;26.30;95.00
1079;DHT22;528;47.872;11.478;2022-08-01T09:11:39;26.30;93.80
1079;DHT22;528;47.872;11.478;2022-08-01T09:14:09;26.30;94.00
1079;DHT22;528;47.872;11.478;2022-08-01T09:16:42;26.40;94.50
1079;DHT22;528;47.872;11.478;2022-08-01T09:19:12;26.50;94.00
1079;DHT22;528;47.872;11.478;2022-08-01T09:21:40;26.50;93.40
1079;DHT22;528;47.872;11.478;2022-08-01T09:24:21;26.60;94.20
1079;DHT22;528;47.872;11.478;2022-08-01T09:26:48;26.70;94.50
1079;DHT22;528;47.872;11.478;2022-08-01T09:29:21;26.70;93.70
1079;DHT22;528;47.872;11.478;2022-08-01T09:31:50;26.70;93.50
1079;DHT22;528;47.872;11.478;2022-08-01T09:34:25;26.80;93.30
1079;DHT22;528;47.872;11.478;2022-08-01T09:36:53;26.90;92.80
1079;DHT22;528;47.872;11.478;2022-08-01T09:39:22;26.90;93.30
1079;DHT22;528;47.872;11.478;2022-08-01T09:41:50;27.00;93.40
1079;DHT22;528;47.872;11.478;2022-08-01T09:44:18;27.00;93.40
1079;DHT22;528;47.872;11.478;2022-08-01T09:46:51;27.10;93.20
1079;DHT22;528;47.872;11.478;2022-08-01T09:49:30;27.20;92.90
1079;DHT22;528;47.872;11.478;2022-08-01T09:51:58;27.20;92.80
1079;DHT22;528;47.872;11.478;2022-08-01T09:54:31;27.20;92.60
1079;DHT22;528;47.872;11.478;2022-08-01T09:57:17;27.30;92.50
1079;DHT22;528;47.872;11.478;2022-08-01T09:59:46;27.30;91.90
1079;DHT22;528;47.872;11.478;2022-08-01T10:02:28;27.40;92.70
1079;DHT22;528;47.872;11.478;2022-08-01T10:04:55;27.40;91.60
1079;DHT22;528;47.872;11.478;2022-08-01T10:07:22;27.50;92.40
1079;DHT22;528;47.872;11.478;2022-08-01T10:09:52;27.50;92.20
1079;DHT22;528;47.872;11.478;2022-08-01T10:12:22;27.50;92.70
1079;DHT22;528;47.872;11.478;2022-08-01T10:14:51;27.50;91.70
1079;DHT22;528;47.872;11.478;2022-08-01T10:17:25;27.60;91.40
1079;DHT22;528;47.872;11.478;2022-08-01T10:19:52;27.60;92.20
1079;DHT22;528;47.872;11.478;2022-08-01T10:22:23;27.70;92.80
1079;DHT22;528;47.872;11.478;2022-08-01T10:24:55;27.70;92.10
1079;DHT22;528;47.872;11.478;2022-08-01T10:27:23;27.70;91.60
1079;DHT22;528;47.872;11.478;2022-08-01T10:29:54;27.60;92.10
1079;DHT22;528;47.872;11.478;2022-08-01T10:32:24;27.70;91.90
1079;DHT22;528;47.872;11.478;2022-08-01T10:34:52;27.80;91.60
1079;DHT22;528;47.872;11.478;2022-08-01T10:37:20;27.80;91.20
1079;DHT22;528;47.872;11.478;2022-08-01T10:39:48;27.80;91.90
1079;DHT22;528;47.872;11.478;2022-08-01T10:42:18;27.80;91.80
1079;DHT22;528;47.872;11.478;2022-08-01T10:44:47;27.80;91.30
1079;DHT22;528;47.872;11.478;2022-08-01T10:47:18;27.90;91.50
1079;DHT22;528;47.872;11.478;2022-08-01T10:49:49;28.00;91.50
1079;DHT22;528;47.872;11.478;2022-08-01T10:52:18;28.00;89.50
1079;DHT22;528;47.872;11.478;2022-08-01T10:54:46;28.10;90.90
1079;DHT22;528;47.872;11.478;2022-08-01T10:57:15;28.10;91.10
1079;DHT22;528;47.872;11.478;2022-08-01T11:00:04;28.10;91.10
1079;DHT22;528;47.872;11.478;2022-08-01T11:02:59;28.00;91.50
1079;DHT22;528;47.872;11.478;2022-08-01T11:05:32;28.00;91.00
1079;DHT22;528;47.872;11.478;2022-08-01T11:08:02;28.00;90.30
1079;DHT22;528;47.872;11.478;2022-08-01T11:10:37;28.00;90.10
1079;DHT22;528;47.872;11.478;2022-08-01T11:13:07;28.10;90.60
1079;DHT22;528;47.872;11.478;2022-08-01T11:15:37;28.10;90.90
1079;DHT22;528;47.872;11.478;2022-08-01T11:18:31;28.20;91.00
1079;DHT22;528;47.872;11.478;2022-08-01T11:21:02;28.20;90.80
1079;DHT22;528;47.872;11.478;2022-08-01T11:23:31;28.30;89.70
1079;DHT22;528;47.872;11.478;2022-08-01T11:26:15;28.40;87.60
1079;DHT22;528;47.872;11.478;2022-08-01T11:28:44;28.40;89.10
1079;DHT22;528;47.872;11.478;2022-08-01T11:31:33;28.30;86.60
1079;DHT22;528;47.872;11.478;2022-08-01T11:34:00;28.40;89.60
1079;DHT22;528;47.872;11.478;2022-08-01T11:36:29;28.40;89.20
1079;DHT22;528;47.872;11.478;2022-08-01T11:39:13;28.50;86.50
1079;DHT22;528;47.872;11.478;2022-08-01T11:41:42;28.50;84.30
1079;DHT22;528;47.872;11.478;2022-08-01T11:44:11;28.50;86.40
1079;DHT22;528;47.872;11.478;2022-08-01T11:46:51;28.50;88.00
1079;DHT22;528;47.872;11.478;2022-08-01T11:49:30;28.60;86.70
1079;DHT22;528;47.872;11.478;2022-08-01T11:52:02;28.60;86.00
1079;DHT22;528;47.872;11.478;2022-08-01T11:54:32;28.60;86.40
1079;DHT22;528;47.872;11.478;2022-08-01T11:57:01;28.60;88.90
1079;DHT22;528;47.872;11.478;2022-08-01T11:59:28;28.70;87.30
1079;DHT22;528;47.872;11.478;2022-08-01T12:02:01;28.70;86.40
1079;DHT22;528;47.872;11.478;2022-08-01T12:04:44;28.70;84.70
1079;DHT22;528;47.872;11.478;2022-08-01T12:07:14;28.70;86.30
1079;DHT22;528;47.872;11.478;2022-08-01T12:09:41;28.70;83.80
1079;DHT22;528;47.872;11.478;2022-08-01T12:12:09;28.70;85.60
1079;DHT22;528;47.872;11.478;2022-08-01T12:14:36;28.80;86.40
1079;DHT22;528;47.872;11.478;2022-08-01T12:17:04;28.90;86.90
1079;DHT22;528;47.872;11.478;2022-08-01T12:19:31;28.90;87.60
1079;DHT22;528;47.872;11.478;2022-08-01T12:22:09;28.90;85.00
1079;DHT22;528;47.872;11.478;2022-08-01T12:24:41;29.00;86.90
1079;DHT22;528;47.872;11.478;2022-08-01T12:27:09;28.90;85.40
1079;DHT22;528;47.872;11.478;2022-08-01T12:29:39;28.90;85.00
1079;DHT22;528;47.872;11.478;2022-08-01T12:32:23;28.90;87.60
1079;DHT22;528;47.872;11.478;2022-08-01T12:34:52;29.00;87.00
1079;DHT22;528;47.872;11.478;2022-08-01T12:37:20;29.00;87.10
1079;DHT22;528;47.872;11.478;2022-08-01T12:39:48;29.00;86.60
1079;DHT22;528;47.872;11.478;2022-08-01T12:42:19;29.00;85.80
1079;DHT22;528;47.872;11.478;2022-08-01T12:44:51;29.10;84.30
1079;DHT22;528;47.872;11.478;2022-08-01T12:47:29;29.10;83.00
1079;DHT22;528;47.872;11.478;2022-08-01T12:49:57;29.10;81.90
1079;DHT22;528;47.872;11.478;2022-08-01T12:52:28;29.10;81.70
1079;DHT22;528;47.872;11.478;2022-08-01T12:55:14;29.10;82.10
1079;DHT22;528;47.872;11.478;2022-08-01T12:57:49;29.10;81.30
1079;DHT22;528;47.872;11.478;2022-08-01T13:00:22;29.00;81.80
1079;DHT22;528;47.872;11.478;2022-08-01T13:02:59;29.00;81.60
1079;DHT22;528;47.872;11.478;2022-08-01T13:05:43;28.90;82.00
1079;DHT22;528;47.872;11.478;2022-08-01T13:08:18;28.90;78.10
1079;DHT22;528;47.872;11.478;2022-08-01T13:11:03;28.80;79.70
1079;DHT22;528;47.872;11.478;2022-08-01T13:13:39;28.80;77.90
1079;DHT22;528;47.872;11.478;2022-08-01T13:16:08;28.80;77.90
1079;DHT22;528;47.872;11.478;2022-08-01T13:18:37;28.80;78.10
1079;DHT22;528;47.872;11.478;2022-08-01T13:39:54;28.90;81.50
1079;DHT22;528;47.872;11.478;2022-08-01T13:42:41;28.80;78.50
1079;DHT22;528;47.872;11.478;2022-08-01T13:48:12;28.90;78.20
1079;DHT22;528;47.872;11.478;2022-08-01T13:56:45;28.80;79.90
1079;DHT22;528;47.872;11.478;2022-08-01T14:07:16;28.90;76.50
1079;DHT22;528;47.872;11.478;2022-08-01T14:09:59;28.90;73.90
1079;DHT22;528;47.872;11.478;2022-08-01T14:13:00;28.90;77.60
1079;DHT22;528;47.872;11.478;2022-08-01T14:16:08;28.90;78.60
1079;DHT22;528;47.872;11.478;2022-08-01T14:19:34;28.80;79.90
1079;DHT22;528;47.872;11.478;2022-08-01T14:21:59;28.80;77.90
1079;DHT22;528;47.872;11.478;2022-08-01T14:24:38;28.90;78.70
1079;DHT22;528;47.872;11.478;2022-08-01T14:27:22;28.90;74.60
1079;DHT22;528;47.872;11.478;2022-08-01T14:30:03;28.90;77.00
1079;DHT22;528;47.872;11.478;2022-08-01T14:33:26;28.90;78.10
1079;DHT22;528;47.872;11.478;2022-08-01T14:36:29;29.00;75.60
1079;DHT22;528;47.872;11.478;2022-08-01T14:39:15;28.90;75.50
1079;DHT22;528;47.872;11.478;2022-08-01T14:42:02;28.90;76.50
1079;DHT22;528;47.872;11.478;2022-08-01T14:44:32;28.90;77.10
1079;DHT22;528;47.872;11.478;2022-08-01T14:47:01;29.00;75.10
1079;DHT22;528;47.872;11.478;2022-08-01T14:49:33;29.00;80.40
1079;DHT22;528;47.872;11.478;2022-08-01T14:52:13;28.90;83.20
1079;DHT22;528;47.872;11.478;2022-08-01T14:54:48;28.90;83.30
1079;DHT22;528;47.872;11.478;2022-08-01T14:57:20;28.90;83.20
1079;DHT22;528;47.872;11.478;2022-08-01T14:59:58;28.80;84.50
1079;DHT22;528;47.872;11.478;2022-08-01T15:02:32;28.80;81.50
1079;DHT22;528;47.872;11.478;2022-08-01T15:05:07;28.80;84.90
1079;DHT22;528;47.872;11.478;2022-08-01T15:07:42;28.70;85.50
1079;DHT22;528;47.872;11.478;2022-08-01T15:10:15;28.70;87.10
1079;DHT22;528;47.872;11.478;2022-08-01T15:13:12;28.60;86.30
1079;DHT22;528;47.872;11.478;2022-08-01T15:16:06;28.60;86.00
1079;DHT22;528;47.872;11.478;2022-08-01T15:18:53;28.60;85.60
1079;DHT22;528;47.872;11.478;2022-08-01T15:21:22;28.60;85.30
1079;DHT22;528;47.872;11.478;2022-08-01T15:24:00;28.60;84.20
1079;DHT22;528;47.872;11.478;2022-08-01T15:26:49;28.50;81.50
1079;DHT22;528;47.872;11.478;2022-08-01T15:29:30;28.40;81.20
1079;DHT22;528;47.872;11.478;2022-08-01T15:32:03;28.40;81.90
1079;DHT22;528;47.872;11.478;2022-08-01T15:34:37;28.40;80.10
1079;DHT22;528;47.872;11.478;2022-08-01T15:37:09;28.40;80.00
1079;DHT22;528;47.872;11.478;2022-08-01T15:39:44;28.30;81.00
1079;DHT22;528;47.872;11.478;2022-08-01T15:42:17;28.20;80.50
1079;DHT22;528;47.872;11.478;2022-08-01T15:44:48;28.10;82.30
1079;DHT22;528;47.872;11.478;2022-08-01T15:47:22;28.00;83.40
1079;DHT22;528;47.872;11.478;2022-08-01T15:50:02;27.90;82.20
1079;DHT22;528;47.872;11.478;2022-08-01T15:52:36;27.80;82.80
1079;DHT22;528;47.872;11.478;2022-08-01T15:55:28;27.60;83.80
1079;DHT22;528;47.872;11.478;2022-08-01T15:58:23;27.50;85.30
1079;DHT22;528;47.872;11.478;2022-08-01T16:01:30;27.40;85.60
1079;DHT22;528;47.872;11.478;2022-08-01T16:04:02;27.30;85.80
1079;DHT22;528;47.872;11.478;2022-08-01T16:06:51;27.30;87.00
1079;DHT22;528;47.872;11.478;2022-08-01T16:12:03;27.20;87.30
1079;DHT22;528;47.872;11.478;2022-08-01T16:20:14;26.90;90.00
1079;DHT22;528;47.872;11.478;2022-08-01T16:23:08;26.80;89.70
1079;DHT22;528;47.872;11.478;2022-08-01T16:26:17;26.70;90.20
1079;DHT22;528;47.872;11.478;2022-08-01T16:29:42;26.60;90.50
1079;DHT22;528;47.872;11.478;2022-08-01T16:38:51;26.40;91.20
1079;DHT22;528;47.872;11.478;2022-08-01T16:41:54;26.40;91.20
1079;DHT22;528;47.872;11.478;2022-08-01T16:44:55;26.30;91.50
1079;DHT22;528;47.872;11.478;2022-08-01T16:47:51;26.20;91.70
1079;DHT22;528;47.872;11.478;2022-08-01T16:50:42;26.10;91.90
1079;DHT22;528;47.872;11.478;2022-08-01T16:53:33;26.00;92.00
1079;DHT22;528;47.872;11.478;2022-08-01T16:59:20;25.90;92.10
1079;DHT22;528;47.872;11.478;2022-08-01T17:11:01;25.60;92.60
1079;DHT22;528;47.872;11.478;2022-08-01T18:56:08;24.10;97.50
1079;DHT22;528;47.872;11.478;2022-08-01T18:59:12;24.10;97.70
1079;DHT22;528;47.872;11.478;2022-08-01T19:02:38;24.10;97.90
1079;DHT22;528;47.872;11.478;2022-08-01T19:08:23;24.00;98.10
1079;DHT22;528;47.872;11.478;2022-08-01T19:24:31;23.70;99.00
1079;DHT22;528;47.872;11.478;2022-08-01T19:41:26;23.60;99.80
1079;DHT22;528;47.872;11.478;2022-08-01T21:06:12;22.00;99.90
1079;DHT22;528;47.872;11.478;2022-08-01T21:09:15;22.00;99.90
1079;DHT22;528;47.872;11.478;2022-08-01T21:29:08;21.80;99.90
1079;DHT22;528;47.872;11.478;2022-08-01T21:31:49;21.80;99.90
1079;DHT22;528;47.872;11.478;2022-08-01T21:34:38;21.80;99.90
1079;DHT22;528;47.872;11.478;2022-08-01T21:37:43;21.80;99.90
1079;DHT22;528;47.872;11.478;2022-08-01T21:40:26;21.90;99.90
1079;DHT22;528;47.872;11.478;2022-08-01T21:43:02;21.90;99.90
1079;DHT22;528;47.872;11.478;2022-08-01T21:49:22;21.90;99.90
1079;DHT22;528;47.872;11.478;2022-08-01T21:52:23;22.00;99.90
1079;DHT22;528;47.872;11.478;2022-08-01T22:02:18;22.00;99.90
1079;DHT22;528;47.872;11.478;2022-08-01T22:05:24;21.90;99.90
1079;DHT22;528;47.872;11.478;2022-08-01T22:08:09;21.80;99.90
1079;DHT22;528;47.872;11.478;2022-08-01T23:03:25;21.40;99.90
1079;DHT22;528;47.872;11.478;2022-08-01T23:06:06;21.30;99.90
1079;DHT22;528;47.872;11.478;2022-08-01T23:08:45;21.30;99.90
1079;DHT22;528;47.872;11.478;2022-08-01T23:11:20;21.30;99.90
1079;DHT22;528;47.872;11.478;2022-08-01T23:14:20;21.20;99.90
1079;DHT22;528;47.872;11.478;2022-08-01T23:17:15;21.10;99.90
1079;DHT22;528;47.872;11.478;2022-08-01T23:19:49;21.10;99.90
1079;DHT22;528;47.872;11.478;2022-08-01T23:22:27;21.10;99.90
1079;DHT22;528;47.872;11.478;2022-08-01T23:25:05;21.10;99.90
1079;DHT22;528;47.872;11.478;2022-08-01T23:27:43;21.00;99.90
1079;DHT22;528;47.872;11.478;2022-08-01T23:30:16;21.00;99.90
1079;DHT22;528;47.872;11.478;2022-08-01T23:32:54;20.90;99.90
1079;DHT22;528;47.872;11.478;2022-08-01T23:35:27;20.80;99.90
1079;DHT22;528;47.872;11.478;2022-08-01T23:37:55;20.70;99.90
1079;DHT22;528;47.872;11.478;2022-08-01T23:40:23;20.60;99.90
1079;DHT22;528;47.872;11.478;2022-08-01T23:43:06;20.40;99.90
1079;DHT22;528;47.872;11.478;2022-08-01T23:45:44;20.40;99.90
1079;DHT22;528;47.872;11.478;2022-08-01T23:48:23;20.40;99.90
1079;DHT22;528;47.872;11.478;2022-08-01T23:51:09;20.30;99.90
1079;DHT22;528;47.872;11.478;2022-08-01T23:53:51;20.40;99.90
1079;DHT22;528;47.872;11.478;2022-08-01T23:56:20;20.40;99.90
1079;DHT22;528;47.872;11.478;2022-08-01T23:58:58;20.40;99.90
